Terminal Aerodrome Forecast
Issued by NWS Paducah, KY

Home | Current Version | Previous Version | Text Only | Print | Product List | Glossary On
Versions: 1 2 3 4 5 6 7 8 9 10 11 12 13 14 15 16 17 18 19 20 21
000
FTUS43 KPAH 211149 AAA
TAFPAH
TAF AMD
KPAH 211149Z 2112/2212 00000KT 5SM BR BCFG SKC
      TEMPO 2112/2115 2SM BR
     FM211500 19008KT P6SM FEW035
     FM220100 15004KT P6SM SKC=

USA.gov is the U.S. government's official web portal to all federal, state and local government web resources and services.